sensor_id;sensor_type;location;lat;lon;timestamp;temperature;humidity
7163;DHT22;3623;47.098;15.446;2023-03-01T00:00:19;1.00;99.90
7163;DHT22;3623;47.098;15.446;2023-03-01T00:02:46;1.00;99.90
7163;DHT22;3623;47.098;15.446;2023-03-01T00:05:13;0.90;99.90
7163;DHT22;3623;47.098;15.446;2023-03-01T00:07:40;1.10;99.90
7163;DHT22;3623;47.098;15.446;2023-03-01T00:10:10;1.10;99.90
7163;DHT22;3623;47.098;15.446;2023-03-01T00:12:37;1.20;99.90
7163;DHT22;3623;47.098;15.446;2023-03-01T00:15:05;1.00;99.90
7163;DHT22;3623;47.098;15.446;2023-03-01T00:17:33;1.20;99.90
7163;DHT22;3623;47.098;15.446;2023-03-01T00:20:00;1.10;99.90
7163;DHT22;3623;47.098;15.446;2023-03-01T00:22:27;1.10;99.90
7163;DHT22;3623;47.098;15.446;2023-03-01T00:24:55;1.10;99.90
7163;DHT22;3623;47.098;15.446;2023-03-01T00:27:23;1.10;99.90
7163;DHT22;3623;47.098;15.446;2023-03-01T00:29:50;1.40;99.90
7163;DHT22;3623;47.098;15.446;2023-03-01T00:32:17;1.10;99.90
7163;DHT22;3623;47.098;15.446;2023-03-01T00:34:44;1.10;99.90
7163;DHT22;3623;47.098;15.446;2023-03-01T00:37:20;1.00;99.90
7163;DHT22;3623;47.098;15.446;2023-03-01T00:39:47;1.10;99.90
7163;DHT22;3623;47.098;15.446;2023-03-01T00:42:14;1.20;99.90
7163;DHT22;3623;47.098;15.446;2023-03-01T00:44:42;1.10;99.90
7163;DHT22;3623;47.098;15.446;2023-03-01T00:47:09;1.10;99.90
7163;DHT22;3623;47.098;15.446;2023-03-01T00:49:37;1.20;99.90
7163;DHT22;3623;47.098;15.446;2023-03-01T00:52:04;1.70;99.90
7163;DHT22;3623;47.098;15.446;2023-03-01T00:54:31;0.90;99.90
7163;DHT22;3623;47.098;15.446;2023-03-01T00:56:58;0.90;99.90
7163;DHT22;3623;47.098;15.446;2023-03-01T00:59:25;0.90;99.90
7163;DHT22;3623;47.098;15.446;2023-03-01T01:01:53;0.90;99.90
7163;DHT22;3623;47.098;15.446;2023-03-01T01:04:21;0.90;99.90
7163;DHT22;3623;47.098;15.446;2023-03-01T01:06:48;0.90;99.90
7163;DHT22;3623;47.098;15.446;2023-03-01T01:09:16;0.80;99.90
7163;DHT22;3623;47.098;15.446;2023-03-01T01:11:45;1.00;99.90
7163;DHT22;3623;47.098;15.446;2023-03-01T01:14:12;1.00;99.90
7163;DHT22;3623;47.098;15.446;2023-03-01T01:16:39;1.00;99.90
7163;DHT22;3623;47.098;15.446;2023-03-01T01:19:08;1.00;99.90
7163;DHT22;3623;47.098;15.446;2023-03-01T01:21:35;1.00;99.90
7163;DHT22;3623;47.098;15.446;2023-03-01T01:24:03;0.80;99.90
7163;DHT22;3623;47.098;15.446;2023-03-01T01:26:33;0.90;99.90
7163;DHT22;3623;47.098;15.446;2023-03-01T01:29:02;0.90;99.90
7163;DHT22;3623;47.098;15.446;2023-03-01T01:31:30;1.00;99.90
7163;DHT22;3623;47.098;15.446;2023-03-01T01:33:59;1.00;99.90
7163;DHT22;3623;47.098;15.446;2023-03-01T01:36:28;1.10;99.90
7163;DHT22;3623;47.098;15.446;2023-03-01T01:38:56;1.10;99.90
7163;DHT22;3623;47.098;15.446;2023-03-01T01:41:25;1.20;99.90
7163;DHT22;3623;47.098;15.446;2023-03-01T01:44:11;1.50;99.90
7163;DHT22;3623;47.098;15.446;2023-03-01T01:46:40;1.20;99.90
7163;DHT22;3623;47.098;15.446;2023-03-01T01:49:16;1.20;99.90
7163;DHT22;3623;47.098;15.446;2023-03-01T01:51:47;1.60;99.90
7163;DHT22;3623;47.098;15.446;2023-03-01T01:54:18;1.20;99.90
7163;DHT22;3623;47.098;15.446;2023-03-01T01:56:50;1.20;99.90
7163;DHT22;3623;47.098;15.446;2023-03-01T01:59:19;1.80;99.90
7163;DHT22;3623;47.098;15.446;2023-03-01T02:01:50;1.30;99.90
7163;DHT22;3623;47.098;15.446;2023-03-01T02:04:17;1.30;99.90
7163;DHT22;3623;47.098;15.446;2023-03-01T02:06:49;1.20;99.90
7163;DHT22;3623;47.098;15.446;2023-03-01T02:09:20;1.20;99.90
7163;DHT22;3623;47.098;15.446;2023-03-01T02:11:49;1.20;99.90
7163;DHT22;3623;47.098;15.446;2023-03-01T02:14:17;1.30;99.90
7163;DHT22;3623;47.098;15.446;2023-03-01T02:16:44;1.20;99.90
7163;DHT22;3623;47.098;15.446;2023-03-01T02:19:19;1.20;99.90
7163;DHT22;3623;47.098;15.446;2023-03-01T02:21:55;1.20;99.90
7163;DHT22;3623;47.098;15.446;2023-03-01T02:24:31;1.20;99.90
7163;DHT22;3623;47.098;15.446;2023-03-01T02:27:02;1.20;99.90
7163;DHT22;3623;47.098;15.446;2023-03-01T02:29:31;1.10;99.90
7163;DHT22;3623;47.098;15.446;2023-03-01T02:32:00;1.10;99.90
7163;DHT22;3623;47.098;15.446;2023-03-01T02:34:31;1.10;99.90
7163;DHT22;3623;47.098;15.446;2023-03-01T02:37:01;1.10;99.90
7163;DHT22;3623;47.098;15.446;2023-03-01T02:39:32;1.10;99.90
7163;DHT22;3623;47.098;15.446;2023-03-01T02:42:02;1.10;99.90
7163;DHT22;3623;47.098;15.446;2023-03-01T02:44:32;1.10;99.90
7163;DHT22;3623;47.098;15.446;2023-03-01T02:47:02;1.00;99.90
7163;DHT22;3623;47.098;15.446;2023-03-01T02:49:31;1.10;99.90
7163;DHT22;3623;47.098;15.446;2023-03-01T02:52:23;1.10;99.90
7163;DHT22;3623;47.098;15.446;2023-03-01T02:54:58;1.10;99.90
7163;DHT22;3623;47.098;15.446;2023-03-01T02:57:27;1.10;99.90
7163;DHT22;3623;47.098;15.446;2023-03-01T02:59:57;1.10;99.90
7163;DHT22;3623;47.098;15.446;2023-03-01T03:02:28;1.10;99.90
7163;DHT22;3623;47.098;15.446;2023-03-01T03:05:08;1.10;99.90
7163;DHT22;3623;47.098;15.446;2023-03-01T03:07:38;1.20;99.90
7163;DHT22;3623;47.098;15.446;2023-03-01T03:10:07;1.10;99.90
7163;DHT22;3623;47.098;15.446;2023-03-01T03:12:37;1.10;99.90
7163;DHT22;3623;47.098;15.446;2023-03-01T03:15:08;2.00;99.90
7163;DHT22;3623;47.098;15.446;2023-03-01T03:17:36;1.10;99.90
7163;DHT22;3623;47.098;15.446;2023-03-01T03:20:04;1.00;99.90
7163;DHT22;3623;47.098;15.446;2023-03-01T03:22:32;1.00;99.90
7163;DHT22;3623;47.098;15.446;2023-03-01T03:24:59;0.90;99.90
7163;DHT22;3623;47.098;15.446;2023-03-01T03:27:28;1.10;99.90
7163;DHT22;3623;47.098;15.446;2023-03-01T03:29:57;1.40;99.90
7163;DHT22;3623;47.098;15.446;2023-03-01T03:32:26;0.90;99.90
7163;DHT22;3623;47.098;15.446;2023-03-01T03:34:53;1.10;99.90
7163;DHT22;3623;47.098;15.446;2023-03-01T03:37:20;0.90;99.90
7163;DHT22;3623;47.098;15.446;2023-03-01T03:40:16;0.90;99.90
7163;DHT22;3623;47.098;15.446;2023-03-01T03:42:43;1.00;99.90
7163;DHT22;3623;47.098;15.446;2023-03-01T03:45:10;0.90;99.90
7163;DHT22;3623;47.098;15.446;2023-03-01T03:47:38;1.00;99.90
7163;DHT22;3623;47.098;15.446;2023-03-01T03:50:06;1.00;99.90
7163;DHT22;3623;47.098;15.446;2023-03-01T03:52:33;1.00;99.90
7163;DHT22;3623;47.098;15.446;2023-03-01T03:55:00;1.00;99.90
7163;DHT22;3623;47.098;15.446;2023-03-01T03:57:27;1.00;99.90
7163;DHT22;3623;47.098;15.446;2023-03-01T03:59:54;1.00;99.90
7163;DHT22;3623;47.098;15.446;2023-03-01T04:02:21;1.00;99.90
7163;DHT22;3623;47.098;15.446;2023-03-01T04:04:50;1.20;99.90
7163;DHT22;3623;47.098;15.446;2023-03-01T04:07:17;1.00;99.90
7163;DHT22;3623;47.098;15.446;2023-03-01T04:09:44;1.10;99.90
7163;DHT22;3623;47.098;15.446;2023-03-01T04:12:11;0.90;99.90
7163;DHT22;3623;47.098;15.446;2023-03-01T04:14:38;0.90;99.90
7163;DHT22;3623;47.098;15.446;2023-03-01T04:17:05;1.10;99.90
7163;DHT22;3623;47.098;15.446;2023-03-01T04:19:32;1.10;99.90
7163;DHT22;3623;47.098;15.446;2023-03-01T04:22:03;1.10;99.90
7163;DHT22;3623;47.098;15.446;2023-03-01T04:24:35;1.10;99.90
7163;DHT22;3623;47.098;15.446;2023-03-01T04:27:02;1.20;99.90
7163;DHT22;3623;47.098;15.446;2023-03-01T04:29:29;1.10;99.90
7163;DHT22;3623;47.098;15.446;2023-03-01T04:31:56;1.10;99.90
7163;DHT22;3623;47.098;15.446;2023-03-01T04:34:24;1.70;99.90
7163;DHT22;3623;47.098;15.446;2023-03-01T04:36:52;1.10;99.90
7163;DHT22;3623;47.098;15.446;2023-03-01T04:39:20;1.10;99.90
7163;DHT22;3623;47.098;15.446;2023-03-01T04:41:48;1.60;99.90
7163;DHT22;3623;47.098;15.446;2023-03-01T04:44:15;1.10;99.90
7163;DHT22;3623;47.098;15.446;2023-03-01T04:46:42;0.90;99.90
7163;DHT22;3623;47.098;15.446;2023-03-01T04:49:09;1.00;99.90
7163;DHT22;3623;47.098;15.446;2023-03-01T04:51:36;1.00;99.90
7163;DHT22;3623;47.098;15.446;2023-03-01T04:54:03;0.90;99.90
7163;DHT22;3623;47.098;15.446;2023-03-01T04:56:35;1.00;99.90
7163;DHT22;3623;47.098;15.446;2023-03-01T04:59:02;1.00;99.90
7163;DHT22;3623;47.098;15.446;2023-03-01T05:01:31;1.00;99.90
7163;DHT22;3623;47.098;15.446;2023-03-01T05:03:58;0.80;99.90
7163;DHT22;3623;47.098;15.446;2023-03-01T05:06:28;1.00;99.90
7163;DHT22;3623;47.098;15.446;2023-03-01T05:08:55;1.00;99.90
7163;DHT22;3623;47.098;15.446;2023-03-01T05:11:23;1.40;99.90
7163;DHT22;3623;47.098;15.446;2023-03-01T05:13:51;1.20;99.90
7163;DHT22;3623;47.098;15.446;2023-03-01T05:16:20;1.00;99.90
7163;DHT22;3623;47.098;15.446;2023-03-01T05:18:47;1.00;99.90
7163;DHT22;3623;47.098;15.446;2023-03-01T05:21:16;1.10;99.90
7163;DHT22;3623;47.098;15.446;2023-03-01T05:23:44;1.10;99.90
7163;DHT22;3623;47.098;15.446;2023-03-01T05:26:12;0.80;99.90
7163;DHT22;3623;47.098;15.446;2023-03-01T05:28:40;1.00;99.90
7163;DHT22;3623;47.098;15.446;2023-03-01T05:31:08;1.00;99.90
7163;DHT22;3623;47.098;15.446;2023-03-01T05:33:36;1.00;99.90
7163;DHT22;3623;47.098;15.446;2023-03-01T05:36:04;1.20;99.90
7163;DHT22;3623;47.098;15.446;2023-03-01T05:38:31;1.00;99.90
7163;DHT22;3623;47.098;15.446;2023-03-01T05:40:58;1.00;99.90
7163;DHT22;3623;47.098;15.446;2023-03-01T05:43:26;0.90;99.90
7163;DHT22;3623;47.098;15.446;2023-03-01T05:45:57;0.80;99.90
7163;DHT22;3623;47.098;15.446;2023-03-01T05:48:26;0.90;99.90
7163;DHT22;3623;47.098;15.446;2023-03-01T05:50:53;0.70;99.90
7163;DHT22;3623;47.098;15.446;2023-03-01T05:53:21;0.90;99.90
7163;DHT22;3623;47.098;15.446;2023-03-01T05:55:48;1.40;99.90
7163;DHT22;3623;47.098;15.446;2023-03-01T05:58:18;1.10;99.90
7163;DHT22;3623;47.098;15.446;2023-03-01T06:00:46;1.00;99.90
7163;DHT22;3623;47.098;15.446;2023-03-01T06:03:15;1.00;99.90
7163;DHT22;3623;47.098;15.446;2023-03-01T06:05:44;1.00;99.90
7163;DHT22;3623;47.098;15.446;2023-03-01T06:08:12;1.10;99.90
7163;DHT22;3623;47.098;15.446;2023-03-01T06:10:39;0.90;99.90
7163;DHT22;3623;47.098;15.446;2023-03-01T06:13:07;1.10;99.90
7163;DHT22;3623;47.098;15.446;2023-03-01T06:15:34;0.80;99.90
7163;DHT22;3623;47.098;15.446;2023-03-01T06:18:01;1.20;99.90
7163;DHT22;3623;47.098;15.446;2023-03-01T06:20:29;1.10;99.90
7163;DHT22;3623;47.098;15.446;2023-03-01T06:22:57;1.10;99.90
7163;DHT22;3623;47.098;15.446;2023-03-01T06:25:26;1.10;99.90
7163;DHT22;3623;47.098;15.446;2023-03-01T06:27:54;1.10;99.90
7163;DHT22;3623;47.098;15.446;2023-03-01T06:30:22;1.20;99.90
7163;DHT22;3623;47.098;15.446;2023-03-01T06:32:50;1.20;99.90
7163;DHT22;3623;47.098;15.446;2023-03-01T06:35:18;1.70;99.90
7163;DHT22;3623;47.098;15.446;2023-03-01T06:37:46;1.30;99.90
7163;DHT22;3623;47.098;15.446;2023-03-01T06:40:16;1.30;99.90
7163;DHT22;3623;47.098;15.446;2023-03-01T06:42:47;1.30;99.90
7163;DHT22;3623;47.098;15.446;2023-03-01T06:45:17;1.70;99.90
7163;DHT22;3623;47.098;15.446;2023-03-01T06:47:44;1.40;99.90
7163;DHT22;3623;47.098;15.446;2023-03-01T06:50:12;1.40;99.90
7163;DHT22;3623;47.098;15.446;2023-03-01T06:52:40;1.40;99.90
7163;DHT22;3623;47.098;15.446;2023-03-01T06:55:07;1.50;99.90
7163;DHT22;3623;47.098;15.446;2023-03-01T06:57:36;1.70;99.90
7163;DHT22;3623;47.098;15.446;2023-03-01T07:00:03;1.50;99.90
7163;DHT22;3623;47.098;15.446;2023-03-01T07:02:31;1.60;99.90
7163;DHT22;3623;47.098;15.446;2023-03-01T07:04:58;1.60;99.90
7163;DHT22;3623;47.098;15.446;2023-03-01T07:07:25;1.60;99.90
7163;DHT22;3623;47.098;15.446;2023-03-01T07:09:52;1.70;99.90
7163;DHT22;3623;47.098;15.446;2023-03-01T07:12:19;1.80;99.90
7163;DHT22;3623;47.098;15.446;2023-03-01T07:14:48;1.70;99.90
7163;DHT22;3623;47.098;15.446;2023-03-01T07:17:15;1.60;99.90
7163;DHT22;3623;47.098;15.446;2023-03-01T07:19:42;1.70;99.90
7163;DHT22;3623;47.098;15.446;2023-03-01T07:22:10;1.70;99.90
7163;DHT22;3623;47.098;15.446;2023-03-01T07:24:37;1.60;99.90
7163;DHT22;3623;47.098;15.446;2023-03-01T07:27:04;1.90;99.90
7163;DHT22;3623;47.098;15.446;2023-03-01T07:29:31;1.80;99.90
7163;DHT22;3623;47.098;15.446;2023-03-01T07:32:00;1.80;99.90
7163;DHT22;3623;47.098;15.446;2023-03-01T07:34:27;1.80;99.90
7163;DHT22;3623;47.098;15.446;2023-03-01T07:36:54;1.90;99.90
7163;DHT22;3623;47.098;15.446;2023-03-01T07:39:21;1.90;99.90
7163;DHT22;3623;47.098;15.446;2023-03-01T07:41:49;1.90;99.90
7163;DHT22;3623;47.098;15.446;2023-03-01T07:44:16;2.00;99.90
7163;DHT22;3623;47.098;15.446;2023-03-01T07:46:44;2.10;99.90
7163;DHT22;3623;47.098;15.446;2023-03-01T07:49:12;2.10;99.90
7163;DHT22;3623;47.098;15.446;2023-03-01T07:51:39;2.10;99.90
7163;DHT22;3623;47.098;15.446;2023-03-01T07:54:07;2.20;99.90
7163;DHT22;3623;47.098;15.446;2023-03-01T07:56:35;2.20;99.90
7163;DHT22;3623;47.098;15.446;2023-03-01T07:59:02;2.10;99.90
7163;DHT22;3623;47.098;15.446;2023-03-01T08:01:29;2.50;99.90
7163;DHT22;3623;47.098;15.446;2023-03-01T08:03:56;2.10;99.90
7163;DHT22;3623;47.098;15.446;2023-03-01T08:06:25;2.60;99.90
7163;DHT22;3623;47.098;15.446;2023-03-01T08:08:52;2.30;99.90
7163;DHT22;3623;47.098;15.446;2023-03-01T08:11:21;2.20;99.90
7163;DHT22;3623;47.098;15.446;2023-03-01T08:13:49;2.30;99.90
7163;DHT22;3623;47.098;15.446;2023-03-01T08:16:16;2.30;99.90
7163;DHT22;3623;47.098;15.446;2023-03-01T08:18:43;2.70;99.90
7163;DHT22;3623;47.098;15.446;2023-03-01T08:21:11;2.50;99.90
7163;DHT22;3623;47.098;15.446;2023-03-01T08:23:41;2.50;99.90
7163;DHT22;3623;47.098;15.446;2023-03-01T08:26:09;2.50;99.90
7163;DHT22;3623;47.098;15.446;2023-03-01T08:28:37;2.50;99.90
7163;DHT22;3623;47.098;15.446;2023-03-01T08:31:13;2.40;99.90
7163;DHT22;3623;47.098;15.446;2023-03-01T08:33:40;2.40;99.90
7163;DHT22;3623;47.098;15.446;2023-03-01T08:36:07;2.40;99.90
7163;DHT22;3623;47.098;15.446;2023-03-01T08:38:35;2.50;99.90
7163;DHT22;3623;47.098;15.446;2023-03-01T08:41:04;2.70;99.90
7163;DHT22;3623;47.098;15.446;2023-03-01T08:43:32;2.60;99.90
7163;DHT22;3623;47.098;15.446;2023-03-01T08:45:59;2.50;99.90
7163;DHT22;3623;47.098;15.446;2023-03-01T08:48:27;2.50;99.90
7163;DHT22;3623;47.098;15.446;2023-03-01T08:50:55;2.60;99.90
7163;DHT22;3623;47.098;15.446;2023-03-01T08:53:22;2.10;99.90
7163;DHT22;3623;47.098;15.446;2023-03-01T08:55:49;3.00;99.90
7163;DHT22;3623;47.098;15.446;2023-03-01T08:58:17;2.60;99.90
7163;DHT22;3623;47.098;15.446;2023-03-01T09:00:44;2.80;99.90
7163;DHT22;3623;47.098;15.446;2023-03-01T09:03:11;2.70;99.90
7163;DHT22;3623;47.098;15.446;2023-03-01T09:05:38;2.60;99.90
7163;DHT22;3623;47.098;15.446;2023-03-01T09:08:05;3.00;99.90
7163;DHT22;3623;47.098;15.446;2023-03-01T09:10:38;2.50;99.90
7163;DHT22;3623;47.098;15.446;2023-03-01T09:13:05;2.70;99.90
7163;DHT22;3623;47.098;15.446;2023-03-01T09:15:34;2.80;99.90
7163;DHT22;3623;47.098;15.446;2023-03-01T09:18:03;2.90;99.90
7163;DHT22;3623;47.098;15.446;2023-03-01T09:20:31;2.80;99.90
7163;DHT22;3623;47.098;15.446;2023-03-01T09:22:58;2.60;99.90
7163;DHT22;3623;47.098;15.446;2023-03-01T09:25:26;2.70;99.90
7163;DHT22;3623;47.098;15.446;2023-03-01T09:27:54;2.80;99.90
7163;DHT22;3623;47.098;15.446;2023-03-01T09:30:21;3.00;99.90
7163;DHT22;3623;47.098;15.446;2023-03-01T09:32:51;3.10;99.90
7163;DHT22;3623;47.098;15.446;2023-03-01T09:35:18;3.00;99.90
7163;DHT22;3623;47.098;15.446;2023-03-01T09:37:45;3.00;99.90
7163;DHT22;3623;47.098;15.446;2023-03-01T09:40:15;3.10;99.90
7163;DHT22;3623;47.098;15.446;2023-03-01T09:42:53;3.00;99.90
7163;DHT22;3623;47.098;15.446;2023-03-01T09:45:27;2.90;99.90
7163;DHT22;3623;47.098;15.446;2023-03-01T09:47:57;2.80;99.90
7163;DHT22;3623;47.098;15.446;2023-03-01T09:50:27;2.80;99.90
7163;DHT22;3623;47.098;15.446;2023-03-01T09:53:01;2.90;99.90
7163;DHT22;3623;47.098;15.446;2023-03-01T09:55:32;3.00;99.90
7163;DHT22;3623;47.098;15.446;2023-03-01T09:58:06;3.20;99.90
7163;DHT22;3623;47.098;15.446;2023-03-01T10:00:43;3.40;99.90
7163;DHT22;3623;47.098;15.446;2023-03-01T10:03:17;3.20;99.90
7163;DHT22;3623;47.098;15.446;2023-03-01T10:05:55;3.20;99.90
7163;DHT22;3623;47.098;15.446;2023-03-01T10:08:38;3.10;99.90
7163;DHT22;3623;47.098;15.446;2023-03-01T10:11:19;3.40;99.90
7163;DHT22;3623;47.098;15.446;2023-03-01T10:13:52;3.50;99.90
7163;DHT22;3623;47.098;15.446;2023-03-01T10:16:24;3.30;99.90
7163;DHT22;3623;47.098;15.446;2023-03-01T10:18:58;3.50;99.90
7163;DHT22;3623;47.098;15.446;2023-03-01T10:21:28;3.50;99.90
7163;DHT22;3623;47.098;15.446;2023-03-01T10:24:01;3.50;99.90
7163;DHT22;3623;47.098;15.446;2023-03-01T10:26:54;4.20;99.90
7163;DHT22;3623;47.098;15.446;2023-03-01T10:29:25;3.60;99.90
7163;DHT22;3623;47.098;15.446;2023-03-01T10:31:54;3.60;99.90
7163;DHT22;3623;47.098;15.446;2023-03-01T10:34:28;3.80;99.90
7163;DHT22;3623;47.098;15.446;2023-03-01T10:36:57;3.70;99.90
7163;DHT22;3623;47.098;15.446;2023-03-01T10:39:26;3.50;99.90
7163;DHT22;3623;47.098;15.446;2023-03-01T10:41:58;3.50;99.90
7163;DHT22;3623;47.098;15.446;2023-03-01T10:44:37;3.50;99.90
7163;DHT22;3623;47.098;15.446;2023-03-01T10:47:05;3.50;99.90
7163;DHT22;3623;47.098;15.446;2023-03-01T10:50:01;3.40;99.90
7163;DHT22;3623;47.098;15.446;2023-03-01T10:52:31;3.30;99.90
7163;DHT22;3623;47.098;15.446;2023-03-01T10:55:02;3.20;99.90
7163;DHT22;3623;47.098;15.446;2023-03-01T10:57:33;3.20;99.90
7163;DHT22;3623;47.098;15.446;2023-03-01T11:00:24;3.00;99.90
7163;DHT22;3623;47.098;15.446;2023-03-01T11:03:03;3.00;99.90
7163;DHT22;3623;47.098;15.446;2023-03-01T11:05:32;2.90;99.90
7163;DHT22;3623;47.098;15.446;2023-03-01T11:08:01;2.90;99.90
7163;DHT22;3623;47.098;15.446;2023-03-01T11:10:31;2.90;99.90
7163;DHT22;3623;47.098;15.446;2023-03-01T11:13:13;3.10;99.90
7163;DHT22;3623;47.098;15.446;2023-03-01T11:15:41;3.10;99.90
7163;DHT22;3623;47.098;15.446;2023-03-01T11:18:19;2.70;99.90
7163;DHT22;3623;47.098;15.446;2023-03-01T11:20:49;3.00;99.90
7163;DHT22;3623;47.098;15.446;2023-03-01T11:23:18;3.00;99.90
7163;DHT22;3623;47.098;15.446;2023-03-01T11:25:51;2.90;99.90
7163;DHT22;3623;47.098;15.446;2023-03-01T11:28:22;3.00;99.90
7163;DHT22;3623;47.098;15.446;2023-03-01T11:30:55;3.20;99.90
7163;DHT22;3623;47.098;15.446;2023-03-01T11:33:34;3.30;99.90
7163;DHT22;3623;47.098;15.446;2023-03-01T11:36:07;3.50;99.90
7163;DHT22;3623;47.098;15.446;2023-03-01T11:38:38;3.60;99.90
7163;DHT22;3623;47.098;15.446;2023-03-01T11:41:07;3.90;99.90
7163;DHT22;3623;47.098;15.446;2023-03-01T11:43:41;3.90;99.90
7163;DHT22;3623;47.098;15.446;2023-03-01T11:46:36;4.10;99.90
7163;DHT22;3623;47.098;15.446;2023-03-01T11:49:22;4.40;99.90
7163;DHT22;3623;47.098;15.446;2023-03-01T11:52:04;4.50;99.90
7163;DHT22;3623;47.098;15.446;2023-03-01T11:54:45;4.80;99.90
7163;DHT22;3623;47.098;15.446;2023-03-01T11:57:29;4.40;99.90
7163;DHT22;3623;47.098;15.446;2023-03-01T12:00:17;4.20;99.90
7163;DHT22;3623;47.098;15.446;2023-03-01T12:03:14;4.20;99.90
7163;DHT22;3623;47.098;15.446;2023-03-01T12:06:00;4.30;99.90
7163;DHT22;3623;47.098;15.446;2023-03-01T12:08:39;4.20;99.90
7163;DHT22;3623;47.098;15.446;2023-03-01T12:11:17;4.20;99.90
7163;DHT22;3623;47.098;15.446;2023-03-01T12:14:32;4.20;99.90
7163;DHT22;3623;47.098;15.446;2023-03-01T12:17:19;4.30;99.90
7163;DHT22;3623;47.098;15.446;2023-03-01T12:20:08;4.20;99.90
7163;DHT22;3623;47.098;15.446;2023-03-01T12:22:48;4.50;99.90
7163;DHT22;3623;47.098;15.446;2023-03-01T12:25:28;4.30;99.90
7163;DHT22;3623;47.098;15.446;2023-03-01T12:28:20;4.60;99.90
7163;DHT22;3623;47.098;15.446;2023-03-01T12:31:05;4.80;99.90
7163;DHT22;3623;47.098;15.446;2023-03-01T12:33:45;4.80;99.90
7163;DHT22;3623;47.098;15.446;2023-03-01T12:39:31;4.50;99.90
7163;DHT22;3623;47.098;15.446;2023-03-01T12:42:07;4.50;99.90
7163;DHT22;3623;47.098;15.446;2023-03-01T12:44:50;4.50;99.90
7163;DHT22;3623;47.098;15.446;2023-03-01T12:47:30;5.00;99.90
7163;DHT22;3623;47.098;15.446;2023-03-01T12:50:04;5.00;99.90
7163;DHT22;3623;47.098;15.446;2023-03-01T12:52:40;5.20;99.90
7163;DHT22;3623;47.098;15.446;2023-03-01T12:55:22;5.30;99.90
7163;DHT22;3623;47.098;15.446;2023-03-01T12:58:00;5.40;99.90
7163;DHT22;3623;47.098;15.446;2023-03-01T13:00:31;5.30;99.90
7163;DHT22;3623;47.098;15.446;2023-03-01T13:03:05;5.30;99.90
7163;DHT22;3623;47.098;15.446;2023-03-01T13:05:41;5.60;99.90
7163;DHT22;3623;47.098;15.446;2023-03-01T13:08:15;5.60;99.90
7163;DHT22;3623;47.098;15.446;2023-03-01T13:10:47;5.70;99.90
7163;DHT22;3623;47.098;15.446;2023-03-01T13:13:21;5.50;99.90
7163;DHT22;3623;47.098;15.446;2023-03-01T13:15:49;5.60;99.90
7163;DHT22;3623;47.098;15.446;2023-03-01T13:18:32;5.70;99.90
7163;DHT22;3623;47.098;15.446;2023-03-01T13:21:01;5.90;99.90
7163;DHT22;3623;47.098;15.446;2023-03-01T13:23:35;5.80;99.90
7163;DHT22;3623;47.098;15.446;2023-03-01T13:26:09;5.90;99.90
7163;DHT22;3623;47.098;15.446;2023-03-01T13:28:54;5.90;99.90
7163;DHT22;3623;47.098;15.446;2023-03-01T13:31:59;5.60;99.90
7163;DHT22;3623;47.098;15.446;2023-03-01T13:37:38;5.90;99.90
7163;DHT22;3623;47.098;15.446;2023-03-01T13:43:29;6.00;99.90
7163;DHT22;3623;47.098;15.446;2023-03-01T13:45:59;6.00;99.90
7163;DHT22;3623;47.098;15.446;2023-03-01T13:48:29;6.00;99.90
7163;DHT22;3623;47.098;15.446;2023-03-01T13:50:59;6.00;99.90
7163;DHT22;3623;47.098;15.446;2023-03-01T13:53:30;6.00;99.90
7163;DHT22;3623;47.098;15.446;2023-03-01T13:56:00;5.80;99.90
7163;DHT22;3623;47.098;15.446;2023-03-01T13:58:30;5.70;99.90
7163;DHT22;3623;47.098;15.446;2023-03-01T14:01:00;5.70;99.90
7163;DHT22;3623;47.098;15.446;2023-03-01T14:03:29;5.60;99.90
7163;DHT22;3623;47.098;15.446;2023-03-01T14:06:00;5.70;99.90
7163;DHT22;3623;47.098;15.446;2023-03-01T14:08:29;5.60;99.90
7163;DHT22;3623;47.098;15.446;2023-03-01T14:14:02;5.70;99.90
7163;DHT22;3623;47.098;15.446;2023-03-01T14:16:40;5.70;99.90
7163;DHT22;3623;47.098;15.446;2023-03-01T14:19:15;5.80;99.90
7163;DHT22;3623;47.098;15.446;2023-03-01T14:21:45;5.80;99.90
7163;DHT22;3623;47.098;15.446;2023-03-01T14:24:18;5.80;99.90
7163;DHT22;3623;47.098;15.446;2023-03-01T14:26:45;5.80;99.90
7163;DHT22;3623;47.098;15.446;2023-03-01T14:29:26;5.80;99.90
7163;DHT22;3623;47.098;15.446;2023-03-01T14:31:55;5.90;99.90
7163;DHT22;3623;47.098;15.446;2023-03-01T14:34:24;5.90;99.90
7163;DHT22;3623;47.098;15.446;2023-03-01T14:36:51;6.00;99.90
7163;DHT22;3623;47.098;15.446;2023-03-01T14:39:19;6.00;99.90
7163;DHT22;3623;47.098;15.446;2023-03-01T14:41:47;6.10;99.90
7163;DHT22;3623;47.098;15.446;2023-03-01T14:44:18;6.00;99.90
7163;DHT22;3623;47.098;15.446;2023-03-01T14:46:52;5.80;99.90
7163;DHT22;3623;47.098;15.446;2023-03-01T14:49:24;5.50;99.90
7163;DHT22;3623;47.098;15.446;2023-03-01T14:51:54;5.50;99.90
7163;DHT22;3623;47.098;15.446;2023-03-01T14:54:26;5.40;99.90
7163;DHT22;3623;47.098;15.446;2023-03-01T14:56:57;5.40;99.90
7163;DHT22;3623;47.098;15.446;2023-03-01T14:59:25;5.30;99.90
7163;DHT22;3623;47.098;15.446;2023-03-01T15:01:55;5.10;99.90
7163;DHT22;3623;47.098;15.446;2023-03-01T15:04:26;5.10;99.90
7163;DHT22;3623;47.098;15.446;2023-03-01T15:06:55;5.00;99.90
7163;DHT22;3623;47.098;15.446;2023-03-01T15:09:33;5.00;99.90
7163;DHT22;3623;47.098;15.446;2023-03-01T15:12:25;5.00;99.90
7163;DHT22;3623;47.098;15.446;2023-03-01T15:14:52;5.00;99.90
7163;DHT22;3623;47.098;15.446;2023-03-01T15:17:25;4.90;99.90
7163;DHT22;3623;47.098;15.446;2023-03-01T15:19:55;5.00;99.90
7163;DHT22;3623;47.098;15.446;2023-03-01T15:22:24;4.90;99.90
7163;DHT22;3623;47.098;15.446;2023-03-01T15:24:52;4.80;99.90
7163;DHT22;3623;47.098;15.446;2023-03-01T15:27:21;5.30;99.90
7163;DHT22;3623;47.098;15.446;2023-03-01T15:29:50;4.80;99.90
7163;DHT22;3623;47.098;15.446;2023-03-01T15:32:27;4.80;99.90
7163;DHT22;3623;47.098;15.446;2023-03-01T15:34:56;5.00;99.90
7163;DHT22;3623;47.098;15.446;2023-03-01T15:37:40;4.90;99.90
7163;DHT22;3623;47.098;15.446;2023-03-01T15:40:22;4.90;99.90
7163;DHT22;3623;47.098;15.446;2023-03-01T15:42:57;4.80;99.90
7163;DHT22;3623;47.098;15.446;2023-03-01T15:45:25;4.80;99.90
7163;DHT22;3623;47.098;15.446;2023-03-01T15:47:54;4.70;99.90
7163;DHT22;3623;47.098;15.446;2023-03-01T15:50:27;4.60;99.90
7163;DHT22;3623;47.098;15.446;2023-03-01T15:52:56;4.60;99.90
7163;DHT22;3623;47.098;15.446;2023-03-01T15:55:26;4.60;99.90
7163;DHT22;3623;47.098;15.446;2023-03-01T15:57:59;4.70;99.90
7163;DHT22;3623;47.098;15.446;2023-03-01T16:00:27;4.60;99.90
7163;DHT22;3623;47.098;15.446;2023-03-01T16:02:55;4.50;99.90
7163;DHT22;3623;47.098;15.446;2023-03-01T16:05:23;4.60;99.90
7163;DHT22;3623;47.098;15.446;2023-03-01T16:07:52;4.50;99.90
7163;DHT22;3623;47.098;15.446;2023-03-01T16:10:20;4.50;99.90
7163;DHT22;3623;47.098;15.446;2023-03-01T16:12:48;4.40;99.90
7163;DHT22;3623;47.098;15.446;2023-03-01T16:15:17;4.40;99.90
7163;DHT22;3623;47.098;15.446;2023-03-01T16:17:45;4.30;99.90
7163;DHT22;3623;47.098;15.446;2023-03-01T16:20:12;4.30;99.90
7163;DHT22;3623;47.098;15.446;2023-03-01T16:22:41;4.40;99.90
7163;DHT22;3623;47.098;15.446;2023-03-01T16:25:11;4.30;99.90
7163;DHT22;3623;47.098;15.446;2023-03-01T16:27:38;4.30;99.90
7163;DHT22;3623;47.098;15.446;2023-03-01T16:30:09;4.30;99.90
7163;DHT22;3623;47.098;15.446;2023-03-01T16:32:38;4.20;99.90
7163;DHT22;3623;47.098;15.446;2023-03-01T16:35:06;4.20;99.90
7163;DHT22;3623;47.098;15.446;2023-03-01T16:37:34;4.30;99.90